createdAt,value
2022-10-22T00:02:56.911Z,6.28
2022-10-22T00:05:59.729Z,5.62
2022-10-22T00:09:02.448Z,6.00
2022-10-22T00:12:05.446Z,5.90
2022-10-22T00:15:08.536Z,5.50
2022-10-22T00:18:11.100Z,6.00
2022-10-22T00:21:13.696Z,5.68
2022-10-22T00:24:16.980Z,6.50
2022-10-22T00:27:22.700Z,6.22
2022-10-22T00:30:25.235Z,5.83
2022-10-22T00:33:28.871Z,5.97
2022-10-22T00:36:31.447Z,6.15
2022-10-22T00:39:33.979Z,5.65
2022-10-22T00:42:36.602Z,5.65
2022-10-22T00:45:39.391Z,5.73
2022-10-22T00:48:44.804Z,6.55
2022-10-22T00:51:47.394Z,6.93
2022-10-22T00:54:53.400Z,6.05
2022-10-22T00:57:57.223Z,6.20
2022-10-22T01:00:59.935Z,6.30
2022-10-22T01:04:02.571Z,6.45
2022-10-22T01:07:05.293Z,6.25
2022-10-22T01:10:21.490Z,6.30
2022-10-22T01:13:40.131Z,6.57
2022-10-22T01:16:54.942Z,5.70
2022-10-22T01:20:13.562Z,5.72
2022-10-22T01:23:21.402Z,5.35
2022-10-22T01:26:26.953Z,5.85
2022-10-22T01:29:52.416Z,6.13
2022-10-22T01:32:59.301Z,5.60
2022-10-22T01:36:02.926Z,6.00
2022-10-22T01:39:05.997Z,6.03
2022-10-22T01:42:08.552Z,6.03
2022-10-22T01:45:13.242Z,9.57
2022-10-22T01:48:45.680Z,6.50
2022-10-22T01:52:06.947Z,5.85
2022-10-22T01:55:12.560Z,6.53
2022-10-22T01:58:36.887Z,6.97
2022-10-22T02:01:50.386Z,7.03
2022-10-22T02:04:58.008Z,7.13
2022-10-22T02:08:04.974Z,7.28
2022-10-22T02:11:09.364Z,6.82
2022-10-22T02:14:12.806Z,6.87
2022-10-22T02:17:20.587Z,6.60
2022-10-22T02:20:28.822Z,6.63
2022-10-22T02:23:31.310Z,7.40
2022-10-22T02:27:06.304Z,7.32
2022-10-22T02:30:11.757Z,7.28
2022-10-22T02:33:23.378Z,7.37
2022-10-22T02:36:29.437Z,6.63
2022-10-22T02:39:32.771Z,6.93
2022-10-22T02:42:35.625Z,6.30
2022-10-22T02:45:38.348Z,6.12
2022-10-22T02:48:41.075Z,6.33
2022-10-22T02:51:43.699Z,6.93
2022-10-22T02:54:46.286Z,6.72
2022-10-22T02:57:48.908Z,10.93
2022-10-22T03:00:51.615Z,11.60
2022-10-22T03:03:54.388Z,8.43
2022-10-22T03:06:57.016Z,8.60
2022-10-22T03:10:02.878Z,9.98
2022-10-22T03:13:05.408Z,9.32
2022-10-22T03:16:10.550Z,9.05
2022-10-22T03:19:13.098Z,9.07
2022-10-22T03:22:25.578Z,9.33
2022-10-22T03:25:34.729Z,9.55
2022-10-22T03:28:37.839Z,9.38
2022-10-22T03:31:40.441Z,8.98
2022-10-22T03:34:43.060Z,8.73
2022-10-22T03:37:45.843Z,9.07
2022-10-22T03:40:48.902Z,9.70
2022-10-22T03:43:53.291Z,8.40
2022-10-22T03:46:58.711Z,9.60
2022-10-22T03:50:06.024Z,8.83
2022-10-22T03:53:10.745Z,8.68
2022-10-22T03:56:13.990Z,8.63
2022-10-22T03:59:16.604Z,9.07
2022-10-22T04:02:19.191Z,9.17
2022-10-22T04:05:21.761Z,8.97
2022-10-22T04:08:24.268Z,9.63
2022-10-22T04:11:27.259Z,8.75
2022-10-22T04:14:29.839Z,9.27
2022-10-22T04:17:36.657Z,8.63
2022-10-22T04:20:39.294Z,9.10
2022-10-22T04:23:47.124Z,8.68
2022-10-22T04:26:51.211Z,9.75
2022-10-22T04:29:53.814Z,9.30
2022-10-22T04:32:56.330Z,8.93
2022-10-22T04:35:58.973Z,9.33
2022-10-22T04:39:02.322Z,9.13
2022-10-22T04:42:05.192Z,9.95
2022-10-22T04:45:08.275Z,10.77
2022-10-22T04:48:11.160Z,9.77
2022-10-22T04:51:19.027Z,9.00
2022-10-22T04:54:21.687Z,9.27
2022-10-22T04:57:24.251Z,9.43
2022-10-22T05:00:26.917Z,9.25
2022-10-22T05:03:29.441Z,10.23
2022-10-22T05:06:33.136Z,9.67
2022-10-22T05:09:35.661Z,10.38
2022-10-22T05:12:41.506Z,9.60
2022-10-22T05:15:44.028Z,9.68
2022-10-22T05:18:46.722Z,9.37
2022-10-22T05:21:49.396Z,10.57
2022-10-22T05:24:58.838Z,10.25
2022-10-22T05:28:05.166Z,10.43
2022-10-22T05:31:12.608Z,10.70
2022-10-22T05:34:15.895Z,9.77
2022-10-22T05:37:18.473Z,10.77
2022-10-22T05:40:30.385Z,10.90
2022-10-22T05:43:34.523Z,11.07
2022-10-22T05:46:37.088Z,11.43
2022-10-22T05:49:43.035Z,11.03
2022-10-22T05:52:45.619Z,11.37
2022-10-22T05:55:51.125Z,12.10
2022-10-22T05:58:54.170Z,11.48
2022-10-22T06:01:56.873Z,11.77
2022-10-22T06:05:00.361Z,15.70
2022-10-22T06:08:03.436Z,13.40
2022-10-22T06:11:09.085Z,13.77
2022-10-22T06:14:13.513Z,14.02
2022-10-22T06:17:16.183Z,14.63
2022-10-22T06:20:18.935Z,14.63
2022-10-22T06:23:22.984Z,15.00
2022-10-22T06:26:26.180Z,14.55
2022-10-22T06:29:28.822Z,16.23
2022-10-22T06:32:31.645Z,16.05
2022-10-22T06:35:34.420Z,14.67
2022-10-22T06:38:37.145Z,13.93
2022-10-22T06:41:42.796Z,13.93
2022-10-22T06:44:45.859Z,13.52
2022-10-22T06:47:49.221Z,14.85
2022-10-22T06:50:51.912Z,15.33
2022-10-22T06:53:56.255Z,16.47
2022-10-22T06:56:59.057Z,14.00
2022-10-22T07:00:07.597Z,13.85
2022-10-22T07:03:14.164Z,14.23
2022-10-22T07:06:17.073Z,14.67
2022-10-22T07:09:22.945Z,13.47
2022-10-22T07:12:26.362Z,14.13
2022-10-22T07:15:29.029Z,14.50
2022-10-22T07:18:32.316Z,13.93
2022-10-22T07:21:35.387Z,13.63
2022-10-22T07:24:38.029Z,14.43
2022-10-22T07:27:41.118Z,14.15
2022-10-22T07:30:43.920Z,13.32
2022-10-22T07:33:47.033Z,13.70
2022-10-22T07:36:49.691Z,13.55
2022-10-22T07:39:52.658Z,13.40
2022-10-22T07:42:55.509Z,13.68
2022-10-22T07:45:59.789Z,12.60
2022-10-22T07:49:02.452Z,11.88
2022-10-22T07:52:05.349Z,12.57
2022-10-22T07:55:08.474Z,13.40
2022-10-22T07:58:12.039Z,12.63
2022-10-22T08:01:15.045Z,12.60
2022-10-22T08:04:17.692Z,12.43
2022-10-22T08:07:20.591Z,12.77
2022-10-22T08:10:23.734Z,14.03
2022-10-22T08:13:27.641Z,13.43
2022-10-22T08:16:30.584Z,13.85
2022-10-22T08:19:33.563Z,13.65
2022-10-22T08:22:36.479Z,13.20
2022-10-22T08:25:39.549Z,14.07
2022-10-22T08:28:42.570Z,14.15
2022-10-22T08:31:45.481Z,14.27
2022-10-22T08:34:48.223Z,14.57
2022-10-22T08:37:51.166Z,13.93
2022-10-22T08:41:04.283Z,13.73
2022-10-22T08:44:24.941Z,13.13
2022-10-22T08:48:07.309Z,13.62
2022-10-22T08:51:20.251Z,13.13
2022-10-22T08:54:46.016Z,12.77
2022-10-22T08:57:55.867Z,13.17
2022-10-22T09:01:40.489Z,13.00
2022-10-22T09:04:49.563Z,11.65
2022-10-22T09:07:53.323Z,12.90
2022-10-22T09:11:19.468Z,12.77
2022-10-22T09:14:23.970Z,12.53
2022-10-22T09:17:35.854Z,12.13
2022-10-22T09:20:38.692Z,12.23
2022-10-22T09:24:00.662Z,12.15
2022-10-22T09:27:20.348Z,11.63
2022-10-22T09:30:31.223Z,11.50
2022-10-22T09:33:34.202Z,11.73
2022-10-22T09:36:38.344Z,12.13
2022-10-22T09:39:44.680Z,12.37
2022-10-22T09:42:47.425Z,12.02
2022-10-22T09:45:58.289Z,11.70
2022-10-22T09:49:02.217Z,11.63
2022-10-22T09:52:26.931Z,11.27
2022-10-22T09:55:29.729Z,11.00
2022-10-22T09:58:43.044Z,11.15
2022-10-22T10:01:45.881Z,10.87
2022-10-22T10:04:51.502Z,10.57
2022-10-22T10:07:54.161Z,11.25
2022-10-22T10:11:29.292Z,11.05
2022-10-22T10:14:38.274Z,10.90
2022-10-22T10:17:46.761Z,11.00
2022-10-22T10:21:16.467Z,9.65
2022-10-22T10:24:44.095Z,10.25
2022-10-22T10:28:16.547Z,9.98
2022-10-22T10:31:50.344Z,10.13
2022-10-22T10:35:11.806Z,12.13
2022-10-22T10:38:25.955Z,10.05
2022-10-22T10:41:37.561Z,9.85
2022-10-22T10:45:01.702Z,11.12
2022-10-22T10:48:27.441Z,10.93
2022-10-22T10:51:52.015Z,10.53
2022-10-22T10:55:19.348Z,11.65
2022-10-22T10:58:39.152Z,10.50
2022-10-22T11:02:00.971Z,10.13
2022-10-22T11:05:30.783Z,9.02
2022-10-22T11:08:42.294Z,9.47
2022-10-22T11:11:52.583Z,8.80
2022-10-22T11:15:11.683Z,8.57
2022-10-22T11:18:37.434Z,8.50
2022-10-22T11:22:06.955Z,8.77
2022-10-22T11:25:12.815Z,8.27
2022-10-22T11:28:18.880Z,8.43
2022-10-22T11:31:25.028Z,8.52
2022-10-22T11:34:42.784Z,8.18
2022-10-22T11:37:46.000Z,8.82
2022-10-22T11:41:02.655Z,8.80
2022-10-22T11:44:09.912Z,8.77
2022-10-22T11:47:25.924Z,9.13
2022-10-22T11:50:47.703Z,9.85
2022-10-22T11:53:56.921Z,9.60
2022-10-22T11:57:15.315Z,8.93
2022-10-22T12:00:41.635Z,9.50
2022-10-22T12:04:12.684Z,8.77
2022-10-22T12:07:49.777Z,8.93
2022-10-22T12:11:02.045Z,9.07
2022-10-22T12:14:24.668Z,8.83
2022-10-22T12:17:28.539Z,9.15
2022-10-22T12:20:31.398Z,9.73
2022-10-22T12:23:35.761Z,8.75
2022-10-22T12:26:38.531Z,9.70
2022-10-22T12:29:41.988Z,10.37
2022-10-22T12:32:44.932Z,9.85
2022-10-22T12:35:49.298Z,9.75
2022-10-22T12:38:52.099Z,9.70
2022-10-22T12:41:55.142Z,10.27
2022-10-22T12:44:57.878Z,10.03
2022-10-22T12:48:07.023Z,10.68
2022-10-22T12:51:15.606Z,10.25
2022-10-22T12:54:29.977Z,10.80
2022-10-22T12:57:32.690Z,10.73
2022-10-22T13:00:35.981Z,10.40
2022-10-22T13:03:52.416Z,9.90
2022-10-22T13:07:18.481Z,9.77
2022-10-22T13:10:32.751Z,10.05
2022-10-22T13:13:45.971Z,11.18
2022-10-22T13:17:06.412Z,10.20
2022-10-22T13:20:20.175Z,10.55
2022-10-22T13:23:28.363Z,10.40
2022-10-22T13:26:34.699Z,10.70
2022-10-22T13:29:41.847Z,11.40
2022-10-22T13:32:50.524Z,10.93
2022-10-22T13:35:54.616Z,10.75
2022-10-22T13:38:57.741Z,11.70
2022-10-22T13:42:00.667Z,11.63
2022-10-22T13:45:03.344Z,10.98
2022-10-22T13:48:06.722Z,12.40
2022-10-22T13:51:31.499Z,11.75
2022-10-22T13:54:34.210Z,11.60
2022-10-22T13:57:36.978Z,12.40
2022-10-22T14:00:44.262Z,11.93
2022-10-22T14:03:47.758Z,12.43
2022-10-22T14:06:50.487Z,12.35
2022-10-22T14:09:53.094Z,12.00
2022-10-22T14:12:55.747Z,13.05
2022-10-22T14:15:58.333Z,13.13
2022-10-22T14:19:01.665Z,12.80
2022-10-22T14:22:05.328Z,12.63
2022-10-22T14:25:11.974Z,13.05
2022-10-22T14:28:15.147Z,13.55
2022-10-22T14:31:17.990Z,12.98
2022-10-22T14:34:20.751Z,13.57
2022-10-22T14:37:25.202Z,14.00
2022-10-22T14:40:27.846Z,14.40
2022-10-22T14:43:31.465Z,14.13
2022-10-22T14:46:37.232Z,14.48
2022-10-22T14:49:40.027Z,14.10
2022-10-22T14:52:43.894Z,15.10
2022-10-22T14:55:49.281Z,14.27
2022-10-22T14:58:53.678Z,14.23
2022-10-22T15:01:59.410Z,14.68
2022-10-22T15:05:02.027Z,14.80
2022-10-22T15:08:05.580Z,15.00
2022-10-22T15:11:11.393Z,14.50
2022-10-22T15:14:15.690Z,14.00
2022-10-22T15:17:19.389Z,13.38
2022-10-22T15:20:22.111Z,14.37
2022-10-22T15:23:25.687Z,14.75
2022-10-22T15:26:29.418Z,15.30
2022-10-22T15:29:33.332Z,13.75
2022-10-22T15:32:36.581Z,14.63
2022-10-22T15:35:39.312Z,14.90
2022-10-22T15:38:42.381Z,14.75
2022-10-22T15:41:47.244Z,15.45
2022-10-22T15:44:50.288Z,14.80
2022-10-22T15:47:53.023Z,14.77
2022-10-22T15:50:55.754Z,15.80
2022-10-22T15:53:59.560Z,16.37
2022-10-22T15:57:03.889Z,15.32
2022-10-22T16:00:07.731Z,16.80
2022-10-22T16:03:10.428Z,16.58
2022-10-22T16:06:13.174Z,16.20
2022-10-22T16:09:19.770Z,16.85
2022-10-22T16:12:23.165Z,17.75
2022-10-22T16:15:26.681Z,17.30
2022-10-22T16:18:29.950Z,17.10
2022-10-22T16:21:35.912Z,16.87
2022-10-22T16:24:41.390Z,16.12
2022-10-22T16:27:49.749Z,17.40
2022-10-22T16:30:56.530Z,17.55
2022-10-22T16:33:59.364Z,17.62
2022-10-22T16:37:02.800Z,16.80
2022-10-22T16:40:08.249Z,17.17
2022-10-22T16:43:11.383Z,17.33
2022-10-22T16:46:17.510Z,17.98
2022-10-22T16:49:20.659Z,17.65
2022-10-22T16:52:23.425Z,16.50
2022-10-22T16:55:27.152Z,16.90
2022-10-22T16:58:33.471Z,17.67
2022-10-22T17:01:40.888Z,17.45
2022-10-22T17:04:44.238Z,16.90
2022-10-22T17:07:47.223Z,17.53
2022-10-22T17:10:50.325Z,18.12
2022-10-22T17:13:54.642Z,18.75
2022-10-22T17:16:57.907Z,17.80
2022-10-22T17:20:01.047Z,17.77
2022-10-22T17:23:05.038Z,19.07
2022-10-22T17:26:09.898Z,19.73
2022-10-22T17:29:13.871Z,19.08
2022-10-22T17:32:16.860Z,18.87
2022-10-22T17:35:20.576Z,18.45
2022-10-22T17:38:23.603Z,20.20
2022-10-22T17:41:30.027Z,18.85
2022-10-22T17:44:33.027Z,18.70
2022-10-22T17:47:37.938Z,17.90
2022-10-22T17:50:48.218Z,20.52
2022-10-22T17:53:54.176Z,18.80
2022-10-22T17:56:57.741Z,18.60
2022-10-22T18:00:00.624Z,19.55
2022-10-22T18:03:03.661Z,18.05
2022-10-22T18:06:10.814Z,18.87
2022-10-22T18:09:18.435Z,18.87
2022-10-22T18:12:22.072Z,18.62
2022-10-22T18:15:26.251Z,18.50
2022-10-22T18:18:29.363Z,20.77
2022-10-22T18:21:34.083Z,17.37
2022-10-22T18:24:37.364Z,17.80
2022-10-22T18:27:40.793Z,17.95
2022-10-22T18:30:45.706Z,17.75
2022-10-22T18:33:49.117Z,18.40
2022-10-22T18:36:52.364Z,19.15
2022-10-22T18:39:55.342Z,18.03
2022-10-22T18:43:04.816Z,18.87
2022-10-22T18:46:08.536Z,19.40
2022-10-22T18:49:18.464Z,18.02
2022-10-22T18:52:21.677Z,19.35
2022-10-22T18:55:24.876Z,18.63
2022-10-22T18:58:29.166Z,19.15
2022-10-22T19:01:35.470Z,19.60
2022-10-22T19:04:38.531Z,19.87
2022-10-22T19:07:41.828Z,20.53
2022-10-22T19:10:46.875Z,20.10
2022-10-22T19:13:50.519Z,21.50
2022-10-22T19:16:53.595Z,20.48
2022-10-22T19:20:00.459Z,21.40
2022-10-22T19:23:04.957Z,20.87
2022-10-22T19:26:11.535Z,21.10
2022-10-22T19:29:16.878Z,23.02
2022-10-22T19:32:20.350Z,22.35
2022-10-22T19:35:23.540Z,22.85
2022-10-22T19:38:29.911Z,21.70
2022-10-22T19:41:33.285Z,21.27
2022-10-22T19:44:36.375Z,22.23
2022-10-22T19:47:39.257Z,22.40
2022-10-22T19:50:42.205Z,21.23
2022-10-22T19:53:47.791Z,21.45
2022-10-22T19:56:51.369Z,20.97
2022-10-22T19:59:54.525Z,22.10
2022-10-22T20:02:58.332Z,22.23
2022-10-22T20:06:01.117Z,23.60
2022-10-22T20:09:04.022Z,22.85
2022-10-22T20:12:06.888Z,23.20
2022-10-22T20:15:09.673Z,23.80
2022-10-22T20:18:12.329Z,23.05
2022-10-22T20:21:17.052Z,22.90
2022-10-22T20:24:20.049Z,23.35
2022-10-22T20:27:22.806Z,22.60
2022-10-22T20:30:25.914Z,23.35
2022-10-22T20:33:28.722Z,21.33
2022-10-22T20:36:32.828Z,23.62
2022-10-22T20:39:35.698Z,22.67
2022-10-22T20:42:42.209Z,23.33
2022-10-22T20:45:45.589Z,21.98
2022-10-22T20:48:52.200Z,22.33
2022-10-22T20:51:55.310Z,22.80
2022-10-22T20:54:58.148Z,23.33
2022-10-22T20:58:00.904Z,22.67
2022-10-22T21:01:10.243Z,24.98
2022-10-22T21:04:13.373Z,23.70
2022-10-22T21:07:15.989Z,24.12
2022-10-22T21:10:18.673Z,24.02
2022-10-22T21:13:21.294Z,24.10
2022-10-22T21:16:24.178Z,25.08
2022-10-22T21:19:27.208Z,24.37
2022-10-22T21:22:29.885Z,24.27
2022-10-22T21:25:32.600Z,24.30
2022-10-22T21:28:36.830Z,24.17
2022-10-22T21:31:40.655Z,23.75
2022-10-22T21:34:44.155Z,24.55
2022-10-22T21:37:46.975Z,24.05
2022-10-22T21:40:50.339Z,22.85
2022-10-22T21:43:53.128Z,23.33
2022-10-22T21:46:55.925Z,24.02
2022-10-22T21:49:58.496Z,21.62
2022-10-22T21:53:01.295Z,22.25
2022-10-22T21:56:04.764Z,21.02
2022-10-22T21:59:07.667Z,22.27
2022-10-22T22:02:11.234Z,22.10
2022-10-22T22:05:13.997Z,23.42
2022-10-22T22:08:17.169Z,21.62
2022-10-22T22:11:27.599Z,21.63
2022-10-22T22:14:31.032Z,21.90
2022-10-22T22:17:33.704Z,22.83
2022-10-22T22:20:39.420Z,23.30
2022-10-22T22:23:43.876Z,23.38
2022-10-22T22:26:46.561Z,23.80
2022-10-22T22:29:49.343Z,23.27
2022-10-22T22:32:51.888Z,23.98
2022-10-22T22:35:58.867Z,23.00
2022-10-22T22:39:01.480Z,24.05
2022-10-22T22:42:04.470Z,23.40
2022-10-22T22:45:07.485Z,24.47
2022-10-22T22:48:10.140Z,23.62
2022-10-22T22:51:16.030Z,23.58
2022-10-22T22:54:18.642Z,24.70
2022-10-22T22:57:21.429Z,25.15
2022-10-22T23:00:24.044Z,22.77
2022-10-22T23:03:26.654Z,23.87
2022-10-22T23:06:32.479Z,24.33
2022-10-22T23:09:35.496Z,23.80
2022-10-22T23:12:38.256Z,24.25
2022-10-22T23:15:40.876Z,24.40
2022-10-22T23:18:44.519Z,22.52
2022-10-22T23:21:52.432Z,23.02
2022-10-22T23:24:55.092Z,23.12
2022-10-22T23:27:57.872Z,22.77
2022-10-22T23:31:05.216Z,21.93
2022-10-22T23:34:08.309Z,21.85
2022-10-22T23:37:12.298Z,21.85
2022-10-22T23:40:15.029Z,21.83
2022-10-22T23:43:17.628Z,22.33
2022-10-22T23:46:20.364Z,21.60
2022-10-22T23:49:23.328Z,21.80
2022-10-22T23:52:26.185Z,21.15
2022-10-22T23:55:28.763Z,20.58
2022-10-22T23:58:31.607Z,20.85
